Terminal Aerodrome Forecast
Issued by NWS

Home | Current Version | Previous Version | Text Only | Print | Product List | Glossary On
Versions: 1 2 3 4 5 6 7 8 9 10 11 12 13 14 15 16 17 18 19 20 21 22 23 24 25 26 27 28 29
663
FTUS44 KEWX 290315 AAC
TAFSSF
TAF AMD
KSSF 290315Z 2903/2924 12013KT P6SM BKN022
     FM290500 15012KT P6SM BKN018
     FM290800 26022G32KT 5SM -TSRA BR OVC015CB
     FM291000 VRB03KT P6SM SCT060
     FM291400 21008KT P6SM FEW250=

USA.gov is the U.S. government's official web portal to all federal, state and local government web resources and services.